Time;durP1;ratioP1;P1;durP2;ratioP2;P2;SDS_P1;SDS_P2;PMS_P1;PMS_P2;Temp;Humidity;BMP_temperature;BMP_pressure;BME280_temperature;BME280_humidity;BME280_pressure;Samples;Min_cycle;Max_cycle;Signal;HPM_P1;HPM_P2
2023/04/15 00:01:25;;;;;;;;;;;6.40;99.90;;;;;;4986660;28;20364;-61
2023/04/15 00:03:52;;;;;;;;;;;6.30;99.90;;;;;;4993124;28;19918;-58
2023/04/15 00:06:18;;;;;;;;;;;6.20;99.90;;;;;;4987186;28;19918;-59
2023/04/15 00:08:44;;;;;;;;;;;6.00;99.90;;;;;;4990109;28;20398;-59
2023/04/15 00:11:09;;;;;;;;;;;5.80;99.90;;;;;;4989258;28;20017;-61
2023/04/15 00:13:35;;;;;;;;;;;5.50;99.90;;;;;;4984716;28;19964;-57
2023/04/15 00:16:01;;;;;;;;;;;5.40;99.90;;;;;;4988859;28;19913;-59
2023/04/15 00:18:26;;;;;;;;;;;5.30;99.90;;;;;;4989437;28;20335;-59
2023/04/15 00:20:52;;;;;;;;;;;5.30;99.90;;;;;;4988678;28;19914;-58
2023/04/15 00:23:17;;;;;;;;;;;5.40;99.90;;;;;;4989816;28;20297;-59
2023/04/15 00:25:43;;;;;;;;;;;5.50;99.90;;;;;;4986478;28;20300;-57
2023/04/15 00:28:09;;;;;;;;;;;5.50;99.90;;;;;;4992091;28;19914;-59
2023/04/15 00:30:34;;;;;;;;;;;5.60;99.90;;;;;;4991330;28;19922;-56
2023/04/15 00:33:01;;;;;;;;;;;5.50;99.90;;;;;;4994412;28;20376;-59
2023/04/15 00:35:26;;;;;;;;;;;5.40;99.90;;;;;;4987683;28;19933;-59
2023/04/15 00:37:52;;;;;;;;;;;5.30;99.90;;;;;;4994121;28;20419;-59
2023/04/15 00:40:19;;;;;;;;;;;5.30;99.90;;;;;;4990165;28;20296;-58
2023/04/15 00:42:45;;;;;;;;;;;5.10;99.90;;;;;;4994465;28;19914;-60
2023/04/15 00:45:11;;;;;;;;;;;5.00;99.90;;;;;;4992068;28;20299;-59
2023/04/15 00:47:36;;;;;;;;;;;4.90;99.90;;;;;;4992329;28;20288;-57
2023/04/15 00:50:02;;;;;;;;;;;4.90;99.90;;;;;;4990240;28;19921;-59
2023/04/15 00:52:27;;;;;;;;;;;5.00;99.90;;;;;;4991490;28;20380;-57
2023/04/15 00:54:53;;;;;;;;;;;5.00;99.90;;;;;;4988097;28;20368;-57
2023/04/15 00:57:20;;;;;;;;;;;5.00;99.90;;;;;;4991856;28;20245;-60
2023/04/15 00:59:46;;;;;;;;;;;5.00;99.90;;;;;;4989631;28;19918;-59
2023/04/15 01:02:11;;;;;;;;;;;4.90;99.90;;;;;;4991309;28;19913;-56
2023/04/15 01:04:37;;;;;;;;;;;4.90;99.90;;;;;;4992489;28;20340;-57
2023/04/15 01:07:02;;;;;;;;;;;4.80;99.90;;;;;;4993490;28;19925;-57
2023/04/15 01:09:28;;;;;;;;;;;4.70;99.90;;;;;;4992408;28;19914;-60
2023/04/15 01:11:53;;;;;;;;;;;4.70;99.90;;;;;;4988476;28;21855;-59
2023/04/15 01:14:20;;;;;;;;;;;4.70;99.90;;;;;;4992107;28;19996;-56
2023/04/15 01:16:45;;;;;;;;;;;4.80;99.90;;;;;;4993495;28;19918;-59
2023/04/15 01:19:13;;;;;;;;;;;4.80;99.90;;;;;;4994879;28;19914;-59
2023/04/15 01:21:38;;;;;;;;;;;4.90;99.90;;;;;;4987176;28;20288;-58
2023/04/15 01:24:07;;;;;;;;;;;4.90;99.90;;;;;;4993249;28;19926;-57
2023/04/15 01:26:33;;;;;;;;;;;5.00;99.90;;;;;;4991150;28;19917;-59
2023/04/15 01:28:58;;;;;;;;;;;5.00;99.90;;;;;;4991911;28;19925;-60
2023/04/15 01:31:24;;;;;;;;;;;5.00;99.90;;;;;;4988387;28;20291;-60
2023/04/15 01:33:49;;;;;;;;;;;4.90;99.90;;;;;;4992339;28;19941;-59
2023/04/15 01:36:15;;;;;;;;;;;4.90;99.90;;;;;;4989753;28;19917;-60
2023/04/15 01:38:40;;;;;;;;;;;5.00;99.90;;;;;;4992369;28;20005;-59
2023/04/15 01:41:08;;;;;;;;;;;5.00;99.90;;;;;;4985382;28;20252;-59
2023/04/15 01:43:36;;;;;;;;;;;5.00;99.90;;;;;;4992567;28;19973;-59
2023/04/15 01:46:02;;;;;;;;;;;5.00;99.90;;;;;;4987173;28;20414;-59
2023/04/15 01:48:27;;;;;;;;;;;5.10;99.90;;;;;;4991711;28;19914;-58
2023/04/15 01:50:54;;;;;;;;;;;5.00;99.90;;;;;;4993278;28;20300;-60
2023/04/15 01:53:19;;;;;;;;;;;4.90;99.90;;;;;;4990859;28;20387;-59
2023/04/15 01:55:45;;;;;;;;;;;4.60;99.90;;;;;;4989399;28;19914;-59
2023/04/15 01:58:10;;;;;;;;;;;4.50;99.90;;;;;;4988636;28;20447;-59
2023/04/15 02:00:36;;;;;;;;;;;4.30;99.90;;;;;;4988965;28;19992;-58
2023/04/15 02:03:01;;;;;;;;;;;4.30;99.90;;;;;;4988502;28;19924;-58
2023/04/15 02:05:27;;;;;;;;;;;4.20;99.90;;;;;;4993064;28;19921;-59
2023/04/15 02:07:52;;;;;;;;;;;4.30;99.90;;;;;;4988372;28;19922;-59
2023/04/15 02:10:18;;;;;;;;;;;4.30;99.90;;;;;;4989107;28;19914;-59
2023/04/15 02:12:43;;;;;;;;;;;4.40;99.90;;;;;;4991328;28;20432;-59
2023/04/15 02:15:09;;;;;;;;;;;4.40;99.90;;;;;;4987533;28;19911;-60
2023/04/15 02:17:35;;;;;;;;;;;4.40;99.90;;;;;;4990274;28;19918;-61
2023/04/15 02:20:00;;;;;;;;;;;4.50;99.90;;;;;;4991738;28;19914;-59
2023/04/15 02:22:26;;;;;;;;;;;4.50;99.90;;;;;;4989479;28;19989;-60
2023/04/15 02:24:52;;;;;;;;;;;4.50;99.90;;;;;;4988631;28;19953;-58
2023/04/15 02:27:17;;;;;;;;;;;4.50;99.90;;;;;;4989731;28;20010;-59
2023/04/15 02:29:44;;;;;;;;;;;4.40;99.90;;;;;;4988006;28;19914;-59
2023/04/15 02:32:10;;;;;;;;;;;4.30;99.90;;;;;;4985304;28;19964;-59
2023/04/15 02:34:38;;;;;;;;;;;4.20;99.90;;;;;;4992314;28;19917;-55
2023/04/15 02:37:04;;;;;;;;;;;4.20;99.90;;;;;;4988368;28;20017;-58
2023/04/15 02:39:29;;;;;;;;;;;4.20;99.90;;;;;;4986952;28;19957;-58
2023/04/15 02:41:57;;;;;;;;;;;4.30;99.90;;;;;;4989311;28;20383;-59
2023/04/15 02:44:23;;;;;;;;;;;4.40;99.90;;;;;;4993262;28;20016;-59
2023/04/15 02:46:51;;;;;;;;;;;4.40;99.90;;;;;;4988692;28;20017;-60
2023/04/15 02:49:17;;;;;;;;;;;4.50;99.90;;;;;;4993965;28;19952;-59
2023/04/15 02:51:42;;;;;;;;;;;4.40;99.90;;;;;;4987805;28;19953;-58
2023/04/15 02:54:08;;;;;;;;;;;4.50;99.90;;;;;;4989838;28;19918;-57
2023/04/15 02:56:33;;;;;;;;;;;4.50;99.90;;;;;;4990605;28;19947;-60
2023/04/15 02:58:58;;;;;;;;;;;4.50;99.90;;;;;;4991562;28;19910;-59
2023/04/15 03:01:25;;;;;;;;;;;4.50;99.90;;;;;;4990002;28;19921;-61
2023/04/15 03:03:50;;;;;;;;;;;4.40;99.90;;;;;;4990299;28;20392;-59
2023/04/15 03:06:16;;;;;;;;;;;4.20;99.90;;;;;;4989771;28;19924;-59
2023/04/15 03:08:41;;;;;;;;;;;4.10;99.90;;;;;;4989607;28;19921;-60
2023/04/15 03:11:07;;;;;;;;;;;4.10;99.90;;;;;;4993262;28;19920;-61
2023/04/15 03:13:32;;;;;;;;;;;4.10;99.90;;;;;;5002957;28;19914;-59
2023/04/15 03:15:58;;;;;;;;;;;4.10;99.90;;;;;;4989853;28;19964;-59
2023/04/15 03:18:23;;;;;;;;;;;4.20;99.90;;;;;;4990989;28;20372;-58
2023/04/15 03:20:49;;;;;;;;;;;4.00;99.90;;;;;;4990177;28;19922;-57
2023/04/15 03:23:15;;;;;;;;;;;3.90;99.90;;;;;;4989913;28;19910;-58
2023/04/15 03:25:40;;;;;;;;;;;3.70;99.90;;;;;;4990703;28;19925;-58
2023/04/15 03:28:06;;;;;;;;;;;3.60;99.90;;;;;;4987216;28;19917;-59
2023/04/15 03:30:31;;;;;;;;;;;3.50;99.90;;;;;;4990961;28;19914;-59
2023/04/15 03:32:57;;;;;;;;;;;3.60;99.90;;;;;;4987939;28;19968;-59
2023/04/15 03:35:22;;;;;;;;;;;3.70;99.90;;;;;;4989608;28;20376;-58
2023/04/15 03:37:48;;;;;;;;;;;3.70;99.90;;;;;;4990618;28;19914;-59
2023/04/15 03:40:13;;;;;;;;;;;3.70;99.90;;;;;;4989951;28;19957;-59
2023/04/15 03:42:39;;;;;;;;;;;3.70;99.90;;;;;;4986586;28;19921;-59
2023/04/15 03:45:05;;;;;;;;;;;3.80;99.90;;;;;;4990394;28;19922;-61
2023/04/15 03:47:30;;;;;;;;;;;3.90;99.90;;;;;;4988778;28;19964;-60
2023/04/15 03:49:56;;;;;;;;;;;4.00;99.90;;;;;;4991780;28;19945;-59
2023/04/15 03:52:21;;;;;;;;;;;4.00;99.90;;;;;;4988473;28;19960;-58
2023/04/15 03:54:47;;;;;;;;;;;4.00;99.90;;;;;;4992421;28;20369;-58
2023/04/15 03:57:12;;;;;;;;;;;4.00;99.90;;;;;;4983869;28;20436;-59
2023/04/15 03:59:38;;;;;;;;;;;4.00;99.90;;;;;;4992008;28;20288;-60
2023/04/15 04:02:03;;;;;;;;;;;4.10;99.90;;;;;;4988243;28;19914;-59
2023/04/15 04:04:28;;;;;;;;;;;4.10;99.90;;;;;;4993462;28;19968;-59
2023/04/15 04:06:54;;;;;;;;;;;4.00;99.90;;;;;;4988436;28;19917;-59
2023/04/15 04:09:19;;;;;;;;;;;4.10;99.90;;;;;;4990231;28;19923;-59
2023/04/15 04:11:45;;;;;;;;;;;4.00;99.90;;;;;;4987243;28;19914;-59
2023/04/15 04:14:10;;;;;;;;;;;3.80;99.90;;;;;;4993472;28;19922;-59
2023/04/15 04:16:36;;;;;;;;;;;3.60;99.90;;;;;;4988319;28;19918;-60
2023/04/15 04:19:01;;;;;;;;;;;3.50;99.90;;;;;;4989968;28;20000;-58
2023/04/15 04:21:27;;;;;;;;;;;3.40;99.90;;;;;;4987053;28;19914;-60
2023/04/15 04:23:52;;;;;;;;;;;3.50;99.90;;;;;;4989885;28;19996;-59
2023/04/15 04:26:18;;;;;;;;;;;3.50;99.90;;;;;;4988024;28;19918;-59
2023/04/15 04:28:44;;;;;;;;;;;3.50;99.90;;;;;;4990682;28;20376;-59
2023/04/15 04:31:09;;;;;;;;;;;3.40;99.90;;;;;;4986234;28;20009;-59
2023/04/15 04:33:35;;;;;;;;;;;3.40;99.90;;;;;;4985078;28;19918;-58
2023/04/15 04:36:00;;;;;;;;;;;3.40;99.90;;;;;;4986730;28;19962;-59
2023/04/15 04:38:26;;;;;;;;;;;3.40;99.90;;;;;;4987107;28;19913;-58
2023/04/15 04:40:51;;;;;;;;;;;3.30;99.90;;;;;;4987570;28;20281;-59
2023/04/15 04:43:17;;;;;;;;;;;3.30;99.90;;;;;;4989104;28;20354;-60
2023/04/15 04:45:42;;;;;;;;;;;3.40;99.90;;;;;;4988413;28;19922;-59
2023/04/15 04:48:09;;;;;;;;;;;3.50;99.90;;;;;;4989557;28;19913;-60
2023/04/15 04:50:34;;;;;;;;;;;3.70;99.90;;;;;;4988783;28;19918;-59
2023/04/15 04:53:00;;;;;;;;;;;3.80;99.90;;;;;;4988621;28;19914;-60
2023/04/15 04:55:26;;;;;;;;;;;3.80;99.90;;;;;;4990048;28;19920;-59
2023/04/15 04:57:51;;;;;;;;;;;3.80;99.90;;;;;;4985473;28;19918;-60
2023/04/15 05:00:17;;;;;;;;;;;3.70;99.90;;;;;;4987954;28;19920;-59
2023/04/15 05:02:42;;;;;;;;;;;3.60;99.90;;;;;;4983797;28;20005;-59
2023/04/15 05:05:08;;;;;;;;;;;3.50;99.90;;;;;;4992230;28;20000;-59
2023/04/15 05:07:34;;;;;;;;;;;3.40;99.90;;;;;;4985106;28;19917;-59
2023/04/15 05:09:59;;;;;;;;;;;3.50;99.90;;;;;;4991133;28;19917;-59
2023/04/15 05:12:25;;;;;;;;;;;3.60;99.90;;;;;;4987130;28;19913;-59
2023/04/15 05:14:51;;;;;;;;;;;3.60;99.90;;;;;;4994272;28;19910;-59
2023/04/15 05:17:16;;;;;;;;;;;3.50;99.90;;;;;;4991849;28;19920;-60
2023/04/15 05:19:42;;;;;;;;;;;3.50;99.90;;;;;;4991776;28;20376;-59
2023/04/15 05:22:07;;;;;;;;;;;3.50;99.90;;;;;;4993949;28;19936;-59
2023/04/15 05:24:32;;;;;;;;;;;3.60;99.90;;;;;;4994919;28;20025;-60
2023/04/15 05:26:58;;;;;;;;;;;3.50;99.90;;;;;;4991865;28;20362;-61
2023/04/15 05:29:23;;;;;;;;;;;3.70;99.90;;;;;;4995223;28;19910;-60
2023/04/15 05:31:49;;;;;;;;;;;3.70;99.90;;;;;;4988404;28;19914;-61
2023/04/15 05:34:16;;;;;;;;;;;3.60;99.90;;;;;;4994564;28;19998;-57
2023/04/15 05:36:41;;;;;;;;;;;3.50;99.90;;;;;;4990775;28;20075;-59
2023/04/15 05:39:07;;;;;;;;;;;3.40;99.90;;;;;;4992115;28;20379;-61
2023/04/15 05:41:33;;;;;;;;;;;3.40;99.90;;;;;;4990431;28;19917;-59
2023/04/15 05:43:58;;;;;;;;;;;3.40;99.90;;;;;;4992491;28;20056;-59
2023/04/15 05:46:24;;;;;;;;;;;3.50;99.90;;;;;;4993245;28;19918;-58
2023/04/15 05:48:50;;;;;;;;;;;3.60;99.90;;;;;;4987398;28;19918;-58
2023/04/15 05:51:15;;;;;;;;;;;3.80;99.90;;;;;;4988554;28;19923;-58
2023/04/15 05:53:41;;;;;;;;;;;4.10;99.90;;;;;;4995702;28;20001;-58
2023/04/15 05:56:06;;;;;;;;;;;4.40;99.90;;;;;;4991973;28;19992;-59
2023/04/15 05:58:32;;;;;;;;;;;4.70;99.90;;;;;;4992108;28;20128;-60
2023/04/15 06:00:57;;;;;;;;;;;4.80;99.90;;;;;;4990130;28;19976;-57
2023/04/15 06:03:23;;;;;;;;;;;5.00;99.90;;;;;;4988758;28;20372;-59
2023/04/15 06:05:48;;;;;;;;;;;5.20;99.90;;;;;;4988828;28;19925;-59
2023/04/15 06:08:14;;;;;;;;;;;5.30;99.90;;;;;;4989728;28;19921;-59
2023/04/15 06:10:39;;;;;;;;;;;5.40;99.90;;;;;;4992000;28;19921;-59
2023/04/15 06:13:05;;;;;;;;;;;5.50;99.90;;;;;;4990827;28;19925;-59
2023/04/15 06:15:30;;;;;;;;;;;5.70;99.90;;;;;;4991892;28;19964;-60
2023/04/15 06:17:56;;;;;;;;;;;5.80;99.90;;;;;;4996177;28;19918;-58
2023/04/15 06:20:21;;;;;;;;;;;6.00;99.90;;;;;;4986253;28;19976;-59
2023/04/15 06:22:47;;;;;;;;;;;6.10;99.90;;;;;;4990824;28;19992;-59
2023/04/15 06:25:13;;;;;;;;;;;6.20;99.90;;;;;;4991996;28;19968;-59
2023/04/15 06:27:38;;;;;;;;;;;6.30;99.90;;;;;;4989762;28;19924;-58
2023/04/15 06:30:04;;;;;;;;;;;6.40;99.90;;;;;;4990446;28;20515;-61
2023/04/15 06:32:30;;;;;;;;;;;6.50;99.90;;;;;;4994757;28;19918;-57
2023/04/15 06:34:56;;;;;;;;;;;6.60;99.90;;;;;;4990752;28;19914;-55
2023/04/15 06:37:21;;;;;;;;;;;6.70;99.90;;;;;;4988536;28;19921;-60
2023/04/15 06:39:47;;;;;;;;;;;6.90;99.90;;;;;;4993097;28;19964;-56
2023/04/15 06:42:12;;;;;;;;;;;7.00;99.90;;;;;;4994445;28;19968;-60
2023/04/15 06:44:38;;;;;;;;;;;7.10;99.90;;;;;;4988297;28;19921;-60
2023/04/15 06:47:03;;;;;;;;;;;7.20;99.90;;;;;;4984179;28;20000;-59
2023/04/15 06:49:29;;;;;;;;;;;7.30;99.90;;;;;;4985388;28;19913;-59
2023/04/15 06:51:54;;;;;;;;;;;7.50;99.90;;;;;;4987632;28;19921;-57
2023/04/15 06:54:19;;;;;;;;;;;7.60;99.90;;;;;;4989706;28;19918;-59
2023/04/15 06:56:46;;;;;;;;;;;7.70;99.90;;;;;;4987140;28;19917;-59
2023/04/15 06:59:13;;;;;;;;;;;7.80;99.90;;;;;;4990732;28;19914;-57
2023/04/15 07:01:41;;;;;;;;;;;7.90;99.90;;;;;;4990378;28;19914;-59
2023/04/15 07:04:06;;;;;;;;;;;8.00;99.90;;;;;;4991479;28;19925;-59
2023/04/15 07:06:32;;;;;;;;;;;8.10;99.90;;;;;;4989676;28;19918;-60
2023/04/15 07:08:58;;;;;;;;;;;8.20;99.90;;;;;;4991680;28;19922;-58
2023/04/15 07:11:25;;;;;;;;;;;8.30;99.90;;;;;;4986349;28;19914;-60
2023/04/15 07:13:50;;;;;;;;;;;8.50;99.90;;;;;;4989320;28;20296;-58
2023/04/15 07:16:16;;;;;;;;;;;8.60;99.90;;;;;;4984326;28;19925;-55
2023/04/15 07:18:42;;;;;;;;;;;8.70;99.90;;;;;;4991940;28;20257;-59
2023/04/15 07:21:08;;;;;;;;;;;8.80;99.90;;;;;;4988465;28;20019;-59
2023/04/15 07:23:33;;;;;;;;;;;8.90;99.90;;;;;;4989156;28;20407;-61
2023/04/15 07:25:59;;;;;;;;;;;9.10;99.90;;;;;;4987806;28;20380;-60
2023/04/15 07:28:24;;;;;;;;;;;9.20;99.90;;;;;;4989886;28;19921;-61
2023/04/15 07:30:50;;;;;;;;;;;9.40;99.90;;;;;;4991101;28;19941;-59
2023/04/15 07:33:15;;;;;;;;;;;9.60;99.90;;;;;;4989142;28;19918;-60
2023/04/15 07:35:41;;;;;;;;;;;9.70;99.90;;;;;;4989423;28;20360;-59
2023/04/15 07:38:07;;;;;;;;;;;9.80;99.90;;;;;;4987437;28;19921;-60
2023/04/15 07:40:33;;;;;;;;;;;10.00;99.90;;;;;;4992583;28;19997;-59
2023/04/15 07:42:58;;;;;;;;;;;10.10;99.90;;;;;;4988364;28;19920;-59
2023/04/15 07:45:23;;;;;;;;;;;10.20;99.90;;;;;;4989914;28;21242;-60
2023/04/15 07:47:50;;;;;;;;;;;10.40;99.90;;;;;;4988754;28;19922;-59
2023/04/15 07:50:16;;;;;;;;;;;10.50;99.90;;;;;;4988944;28;20361;-61
2023/04/15 07:52:42;;;;;;;;;;;10.60;99.90;;;;;;4988604;28;19924;-60
2023/04/15 07:55:08;;;;;;;;;;;10.70;99.90;;;;;;4990250;28;19922;-60
2023/04/15 07:57:36;;;;;;;;;;;10.90;99.90;;;;;;4988035;28;20355;-59
2023/04/15 08:00:04;;;;;;;;;;;11.00;99.90;;;;;;4990820;28;20012;-59
2023/04/15 08:02:30;;;;;;;;;;;11.10;99.90;;;;;;4988616;28;19928;-59
2023/04/15 08:04:56;;;;;;;;;;;11.20;99.90;;;;;;4992284;28;19913;-59
2023/04/15 08:07:22;;;;;;;;;;;11.30;99.90;;;;;;4990007;28;19918;-58
2023/04/15 08:09:47;;;;;;;;;;;11.40;99.90;;;;;;4991101;28;19960;-61
2023/04/15 08:12:13;;;;;;;;;;;11.50;99.90;;;;;;4989158;28;20301;-56
2023/04/15 08:14:39;;;;;;;;;;;11.70;99.90;;;;;;4987344;28;19914;-59
2023/04/15 08:17:05;;;;;;;;;;;11.80;99.90;;;;;;4985685;28;20300;-61
2023/04/15 08:19:30;;;;;;;;;;;11.90;99.90;;;;;;4989002;28;19940;-59
2023/04/15 08:21:56;;;;;;;;;;;12.00;99.90;;;;;;4988431;28;20455;-58
2023/04/15 08:24:22;;;;;;;;;;;12.00;99.90;;;;;;4988263;28;20404;-59
2023/04/15 08:26:47;;;;;;;;;;;11.90;99.90;;;;;;4986989;28;20399;-59
2023/04/15 08:29:13;;;;;;;;;;;11.80;99.90;;;;;;4986971;28;19914;-58
2023/04/15 08:31:38;;;;;;;;;;;11.80;99.90;;;;;;4985749;28;21713;-59
2023/04/15 08:34:04;;;;;;;;;;;11.90;99.90;;;;;;4987335;28;20343;-58
2023/04/15 08:36:31;;;;;;;;;;;11.90;99.90;;;;;;4983534;28;19926;-59
2023/04/15 08:38:57;;;;;;;;;;;12.10;99.90;;;;;;4988739;28;19981;-60
2023/04/15 08:41:26;;;;;;;;;;;12.20;99.90;;;;;;4986451;28;19914;-58
2023/04/15 08:44:00;;;;;;;;;;;12.30;99.90;;;;;;4985902;28;19921;-57
2023/04/15 08:46:26;;;;;;;;;;;12.40;99.90;;;;;;4986420;28;19980;-59
2023/04/15 08:48:53;;;;;;;;;;;12.50;99.90;;;;;;4990175;28;20368;-59
2023/04/15 08:51:19;;;;;;;;;;;12.50;99.90;;;;;;4998117;28;19914;-59
2023/04/15 08:53:46;;;;;;;;;;;12.50;99.90;;;;;;4993497;28;19914;-60
2023/04/15 08:56:13;;;;;;;;;;;12.60;99.90;;;;;;4992683;28;20008;-59
2023/04/15 08:58:38;;;;;;;;;;;12.60;99.90;;;;;;4988738;28;19921;-58
2023/04/15 09:01:04;;;;;;;;;;;12.70;99.90;;;;;;4986550;28;20304;-61
2023/04/15 09:03:30;;;;;;;;;;;12.60;99.90;;;;;;4989855;28;20005;-62
2023/04/15 09:05:56;;;;;;;;;;;12.70;99.90;;;;;;4991922;28;19925;-62
2023/04/15 09:08:21;;;;;;;;;;;12.70;99.90;;;;;;4989971;28;19914;-61
2023/04/15 09:10:47;;;;;;;;;;;12.80;99.90;;;;;;4991646;28;19921;-62
2023/04/15 09:13:12;;;;;;;;;;;12.80;99.90;;;;;;4988357;28;20009;-61
2023/04/15 09:15:38;;;;;;;;;;;12.80;99.90;;;;;;4990344;28;19929;-61
2023/04/15 09:18:04;;;;;;;;;;;12.80;99.90;;;;;;4985297;28;19914;-61
2023/04/15 09:20:37;;;;;;;;;;;12.70;99.90;;;;;;4989905;28;19953;-61
2023/04/15 09:23:10;;;;;;;;;;;12.80;99.90;;;;;;4991663;28;19918;-62
2023/04/15 09:25:36;;;;;;;;;;;12.90;99.90;;;;;;4988033;28;20012;-60
2023/04/15 09:28:02;;;;;;;;;;;12.90;99.90;;;;;;4991561;28;20345;-59
2023/04/15 09:30:27;;;;;;;;;;;12.90;99.90;;;;;;4992859;28;19921;-60
2023/04/15 09:32:54;;;;;;;;;;;13.00;99.90;;;;;;4990986;28;19913;-62
2023/04/15 09:35:21;;;;;;;;;;;13.20;99.90;;;;;;4990989;28;20857;-61
2023/04/15 09:37:46;;;;;;;;;;;13.30;99.90;;;;;;4990487;28;20036;-60
2023/04/15 09:40:12;;;;;;;;;;;13.10;99.90;;;;;;4993558;28;20355;-61
2023/04/15 09:42:53;;;;;;;;;;;12.80;99.90;;;;;;4978648;28;19913;-62
2023/04/15 09:45:19;;;;;;;;;;;12.80;99.90;;;;;;4989175;28;20435;-60
2023/04/15 09:47:44;;;;;;;;;;;12.90;99.90;;;;;;4998054;28;19930;-61
2023/04/15 09:50:10;;;;;;;;;;;13.00;99.90;;;;;;4991273;28;19917;-61
2023/04/15 09:52:40;;;;;;;;;;;13.10;99.90;;;;;;5006999;28;20462;-61
2023/04/15 09:55:06;;;;;;;;;;;12.90;99.90;;;;;;4997705;28;19918;-62
2023/04/15 09:57:35;;;;;;;;;;;12.90;99.90;;;;;;4984971;28;19929;-62
2023/04/15 10:00:02;;;;;;;;;;;13.00;99.90;;;;;;4981711;28;19922;-62
2023/04/15 10:02:28;;;;;;;;;;;13.10;99.90;;;;;;4990377;28;19918;-62
2023/04/15 10:04:54;;;;;;;;;;;13.30;99.90;;;;;;4991569;28;20384;-62
2023/04/15 10:07:21;;;;;;;;;;;13.50;99.90;;;;;;4990157;28;19936;-62
2023/04/15 10:09:47;;;;;;;;;;;13.60;99.90;;;;;;4985896;28;19914;-62
2023/04/15 10:12:14;;;;;;;;;;;13.40;99.90;;;;;;4984967;28;20021;-64
2023/04/15 10:14:41;;;;;;;;;;;13.40;99.90;;;;;;4985281;28;19914;-62
2023/04/15 10:17:09;;;;;;;;;;;13.60;99.90;;;;;;4988176;28;20414;-61
2023/04/15 10:19:36;;;;;;;;;;;13.70;99.90;;;;;;4989944;28;19921;-61
2023/04/15 10:22:01;;;;;;;;;;;13.70;99.90;;;;;;4995958;28;19980;-62
2023/04/15 10:24:27;;;;;;;;;;;13.80;99.90;;;;;;4992082;28;20368;-62
2023/04/15 10:26:54;;;;;;;;;;;14.10;99.90;;;;;;4990728;28;20412;-62
2023/04/15 10:29:19;;;;;;;;;;;14.20;99.90;;;;;;4985635;28;19921;-61
2023/04/15 10:31:45;;;;;;;;;;;13.70;99.90;;;;;;4984518;28;20307;-62
2023/04/15 10:34:11;;;;;;;;;;;13.60;99.90;;;;;;4995025;28;19921;-61
2023/04/15 10:36:37;;;;;;;;;;;13.50;99.90;;;;;;4995570;28;20502;-60
2023/04/15 10:39:22;;;;;;;;;;;13.40;99.90;;;;;;4992186;28;19924;-61
2023/04/15 10:42:05;;;;;;;;;;;13.30;99.90;;;;;;4988603;28;19917;-61
2023/04/15 10:44:30;;;;;;;;;;;13.40;99.90;;;;;;4982818;28;19953;-62
2023/04/15 10:46:57;;;;;;;;;;;13.70;99.90;;;;;;4986299;28;20356;-62
2023/04/15 10:49:25;;;;;;;;;;;14.00;99.90;;;;;;4990398;28;19957;-62
2023/04/15 10:51:51;;;;;;;;;;;13.90;99.90;;;;;;4993590;28;19921;-61
2023/04/15 10:54:23;;;;;;;;;;;13.70;99.90;;;;;;4979057;28;19917;-61
2023/04/15 10:56:50;;;;;;;;;;;13.60;99.90;;;;;;4989084;28;19914;-62
2023/04/15 10:59:15;;;;;;;;;;;13.70;99.90;;;;;;4991007;28;19918;-61
2023/04/15 11:01:58;;;;;;;;;;;13.90;99.90;;;;;;4987068;28;20060;-62
2023/04/15 11:04:43;;;;;;;;;;;13.90;99.90;;;;;;4985679;28;19917;-62
2023/04/15 11:07:08;;;;;;;;;;;13.90;99.90;;;;;;4984716;28;19994;-61
2023/04/15 11:09:33;;;;;;;;;;;13.90;99.90;;;;;;4986227;28;19914;-62
2023/04/15 11:12:07;;;;;;;;;;;13.70;99.90;;;;;;4988537;28;19914;-62
2023/04/15 11:14:34;;;;;;;;;;;13.60;99.90;;;;;;4989328;28;19963;-62
2023/04/15 11:17:00;;;;;;;;;;;13.80;99.90;;;;;;4986642;28;19963;-62
2023/04/15 11:19:26;;;;;;;;;;;13.80;99.90;;;;;;4983953;28;19949;-62
2023/04/15 11:21:51;;;;;;;;;;;14.00;99.90;;;;;;4989526;28;20352;-62
2023/04/15 11:24:27;;;;;;;;;;;14.00;99.90;;;;;;4988916;28;19924;-62
2023/04/15 11:26:58;;;;;;;;;;;14.10;99.90;;;;;;4992593;28;20410;-61
2023/04/15 11:29:28;;;;;;;;;;;14.30;99.90;;;;;;4987868;28;20975;-63
2023/04/15 11:32:01;;;;;;;;;;;14.50;99.90;;;;;;4987221;28;19925;-62
2023/04/15 11:34:26;;;;;;;;;;;14.30;99.90;;;;;;4984021;28;19917;-62
2023/04/15 11:36:55;;;;;;;;;;;14.40;99.90;;;;;;4984469;28;19988;-62
2023/04/15 11:39:21;;;;;;;;;;;14.30;99.90;;;;;;4984682;28;19937;-61
2023/04/15 11:41:47;;;;;;;;;;;14.20;99.90;;;;;;4990780;28;20384;-62
2023/04/15 11:44:18;;;;;;;;;;;14.10;99.90;;;;;;4988689;28;19914;-61
2023/04/15 11:46:43;;;;;;;;;;;13.90;99.90;;;;;;4988020;28;20371;-61
2023/04/15 11:49:09;;;;;;;;;;;13.80;99.90;;;;;;4985960;28;19922;-61
2023/04/15 11:51:34;;;;;;;;;;;13.80;99.90;;;;;;4992146;28;19953;-61
2023/04/15 11:54:00;;;;;;;;;;;13.70;99.90;;;;;;4988007;28;19925;-62
2023/04/15 11:56:26;;;;;;;;;;;13.80;99.90;;;;;;4985418;28;19918;-62
2023/04/15 11:58:55;;;;;;;;;;;13.90;99.90;;;;;;4985891;28;19993;-66
2023/04/15 12:01:30;;;;;;;;;;;13.60;99.90;;;;;;4988036;28;20009;-63
2023/04/15 12:03:56;;;;;;;;;;;13.40;99.90;;;;;;5003018;28;20384;-63
2023/04/15 12:06:22;;;;;;;;;;;13.50;99.90;;;;;;4992466;28;20012;-64
2023/04/15 12:08:51;;;;;;;;;;;13.40;99.90;;;;;;4984132;28;19936;-62
2023/04/15 12:11:17;;;;;;;;;;;13.30;99.90;;;;;;4992640;28;19914;-63
2023/04/15 12:13:43;;;;;;;;;;;13.20;99.90;;;;;;4988800;28;20026;-62
2023/04/15 12:16:09;;;;;;;;;;;13.20;99.90;;;;;;4990381;28;19914;-63
2023/04/15 12:18:36;;;;;;;;;;;13.20;99.90;;;;;;4989383;28;19925;-63
2023/04/15 12:21:11;;;;;;;;;;;13.10;99.90;;;;;;4986345;28;19918;-63
2023/04/15 12:23:37;;;;;;;;;;;13.20;99.90;;;;;;4989272;28;19925;-63
2023/04/15 12:26:06;;;;;;;;;;;13.20;99.90;;;;;;4987339;28;19933;-63
2023/04/15 12:28:33;;;;;;;;;;;13.10;99.90;;;;;;4990465;28;19920;-62
2023/04/15 12:30:58;;;;;;;;;;;12.90;99.90;;;;;;4989404;28;19918;-60
2023/04/15 12:33:31;;;;;;;;;;;12.90;99.90;;;;;;4993814;28;19921;-63
2023/04/15 12:35:57;;;;;;;;;;;12.90;99.90;;;;;;4992360;28;19920;-63
2023/04/15 12:38:22;;;;;;;;;;;12.90;99.90;;;;;;4991463;28;19914;-64
2023/04/15 12:40:47;;;;;;;;;;;12.90;99.90;;;;;;4987704;28;19914;-63
2023/04/15 12:43:13;;;;;;;;;;;12.90;99.90;;;;;;4990012;28;20508;-63
2023/04/15 12:45:38;;;;;;;;;;;12.90;99.90;;;;;;4988270;28;20396;-64
2023/04/15 12:48:04;;;;;;;;;;;12.90;99.90;;;;;;4989499;28;20343;-64
2023/04/15 12:50:29;;;;;;;;;;;12.90;99.90;;;;;;4992373;28;19913;-63
2023/04/15 12:52:55;;;;;;;;;;;12.90;99.90;;;;;;4994091;28;19937;-64
2023/04/15 12:55:20;;;;;;;;;;;12.80;99.90;;;;;;4991535;28;20380;-63
2023/04/15 12:57:46;;;;;;;;;;;12.80;99.90;;;;;;4988377;28;20481;-63
2023/04/15 13:00:12;;;;;;;;;;;12.90;99.90;;;;;;4989191;28;20296;-62
2023/04/15 13:02:37;;;;;;;;;;;12.80;99.90;;;;;;4992233;28;19921;-64
2023/04/15 13:05:03;;;;;;;;;;;12.70;99.90;;;;;;4993662;28;20344;-63
2023/04/15 13:07:28;;;;;;;;;;;12.60;99.90;;;;;;4988380;28;19928;-63
2023/04/15 13:09:53;;;;;;;;;;;12.40;99.90;;;;;;4991080;28;19920;-63
2023/04/15 13:12:19;;;;;;;;;;;12.30;99.90;;;;;;4986346;28;20037;-63
2023/04/15 13:14:45;;;;;;;;;;;12.20;99.90;;;;;;4988554;28;20440;-61
2023/04/15 13:17:10;;;;;;;;;;;12.20;99.90;;;;;;4990632;28;20108;-63
2023/04/15 13:19:36;;;;;;;;;;;12.20;99.90;;;;;;4992384;28;19921;-62
2023/04/15 13:22:01;;;;;;;;;;;12.20;99.90;;;;;;4988871;28;19941;-62
2023/04/15 13:24:27;;;;;;;;;;;12.30;99.90;;;;;;4987639;28;19965;-62
2023/04/15 13:26:53;;;;;;;;;;;12.30;99.90;;;;;;4987712;28;19918;-63
2023/04/15 13:29:18;;;;;;;;;;;12.20;99.90;;;;;;4988614;28;20567;-63
2023/04/15 13:31:43;;;;;;;;;;;12.20;99.90;;;;;;4986344;28;19921;-63
2023/04/15 13:34:09;;;;;;;;;;;12.10;99.90;;;;;;4987465;28;19916;-63
2023/04/15 13:36:34;;;;;;;;;;;12.00;99.90;;;;;;4990257;28;19968;-64
2023/04/15 13:39:00;;;;;;;;;;;12.00;99.90;;;;;;4991812;28;19914;-63
2023/04/15 13:41:25;;;;;;;;;;;12.00;99.90;;;;;;4986711;28;19913;-63
2023/04/15 13:43:51;;;;;;;;;;;12.00;99.90;;;;;;4987879;28;19976;-62
2023/04/15 13:46:16;;;;;;;;;;;11.90;99.90;;;;;;4980895;28;19976;-63
2023/04/15 13:48:42;;;;;;;;;;;12.00;99.90;;;;;;4990996;28;20391;-62
2023/04/15 13:51:07;;;;;;;;;;;11.90;99.90;;;;;;4982259;28;20020;-63
2023/04/15 13:53:33;;;;;;;;;;;11.90;99.90;;;;;;4990814;28;19920;-64
2023/04/15 13:55:58;;;;;;;;;;;11.90;99.90;;;;;;4987118;28;19937;-63
2023/04/15 13:58:24;;;;;;;;;;;11.90;99.90;;;;;;4992830;28;19918;-62
2023/04/15 14:00:49;;;;;;;;;;;11.90;99.90;;;;;;4983879;28;19921;-63
2023/04/15 14:03:15;;;;;;;;;;;11.90;99.90;;;;;;4990350;28;19942;-63
2023/04/15 14:05:40;;;;;;;;;;;11.90;99.90;;;;;;4992960;28;19925;-63
2023/04/15 14:08:06;;;;;;;;;;;11.90;99.90;;;;;;4993260;28;19983;-63
2023/04/15 14:10:31;;;;;;;;;;;11.90;99.90;;;;;;4989961;28;19914;-63
2023/04/15 14:12:57;;;;;;;;;;;11.80;99.90;;;;;;4985528;28;20064;-63
2023/04/15 14:15:22;;;;;;;;;;;11.80;99.90;;;;;;4988353;28;19922;-63
2023/04/15 14:17:47;;;;;;;;;;;11.80;99.90;;;;;;4989527;28;20359;-63